sensor_id;sensor_type;location;lat;lon;timestamp;P1;durP1;ratioP1;P2;durP2;ratioP2
9888;SDS011;4983;42.112;24.738;2024-02-26T00:02:15;49.97;;;28.67;;
9888;SDS011;4983;42.112;24.738;2024-02-26T00:04:40;53.30;;;30.50;;
9888;SDS011;4983;42.112;24.738;2024-02-26T00:07:06;49.72;;;27.35;;
9888;SDS011;4983;42.112;24.738;2024-02-26T00:09:31;46.03;;;26.20;;
9888;SDS011;4983;42.112;24.738;2024-02-26T00:12:00;44.65;;;26.73;;
9888;SDS011;4983;42.112;24.738;2024-02-26T00:14:26;48.70;;;26.77;;
9888;SDS011;4983;42.112;24.738;2024-02-26T00:16:51;45.75;;;28.20;;
9888;SDS011;4983;42.112;24.738;2024-02-26T00:19:17;42.97;;;26.95;;
9888;SDS011;4983;42.112;24.738;2024-02-26T00:21:42;42.13;;;27.27;;
9888;SDS011;4983;42.112;24.738;2024-02-26T00:24:08;41.72;;;26.77;;
9888;SDS011;4983;42.112;24.738;2024-02-26T00:26:33;43.72;;;25.10;;
9888;SDS011;4983;42.112;24.738;2024-02-26T00:28:59;44.00;;;28.40;;
9888;SDS011;4983;42.112;24.738;2024-02-26T00:31:24;43.85;;;27.00;;
9888;SDS011;4983;42.112;24.738;2024-02-26T00:33:50;46.42;;;24.67;;
9888;SDS011;4983;42.112;24.738;2024-02-26T00:36:15;45.25;;;26.42;;
9888;SDS011;4983;42.112;24.738;2024-02-26T00:38:41;46.08;;;27.85;;
9888;SDS011;4983;42.112;24.738;2024-02-26T00:41:07;43.67;;;26.90;;
9888;SDS011;4983;42.112;24.738;2024-02-26T00:43:33;48.75;;;27.67;;
9888;SDS011;4983;42.112;24.738;2024-02-26T00:45:59;45.75;;;26.95;;
9888;SDS011;4983;42.112;24.738;2024-02-26T00:48:24;43.50;;;24.30;;
9888;SDS011;4983;42.112;24.738;2024-02-26T00:50:51;51.67;;;27.85;;
9888;SDS011;4983;42.112;24.738;2024-02-26T00:53:16;44.38;;;26.90;;
9888;SDS011;4983;42.112;24.738;2024-02-26T00:55:42;45.08;;;24.75;;
9888;SDS011;4983;42.112;24.738;2024-02-26T00:58:07;38.95;;;24.27;;
9888;SDS011;4983;42.112;24.738;2024-02-26T01:00:34;45.92;;;26.15;;
9888;SDS011;4983;42.112;24.738;2024-02-26T01:02:59;43.33;;;25.48;;
9888;SDS011;4983;42.112;24.738;2024-02-26T01:05:25;46.00;;;25.52;;
9888;SDS011;4983;42.112;24.738;2024-02-26T01:07:50;41.78;;;22.73;;
9888;SDS011;4983;42.112;24.738;2024-02-26T01:10:16;47.28;;;26.50;;
9888;SDS011;4983;42.112;24.738;2024-02-26T01:12:41;42.15;;;21.73;;
9888;SDS011;4983;42.112;24.738;2024-02-26T01:15:07;34.47;;;19.60;;
9888;SDS011;4983;42.112;24.738;2024-02-26T01:17:33;37.70;;;20.40;;
9888;SDS011;4983;42.112;24.738;2024-02-26T01:19:58;34.78;;;22.70;;
9888;SDS011;4983;42.112;24.738;2024-02-26T01:22:24;39.35;;;24.90;;
9888;SDS011;4983;42.112;24.738;2024-02-26T01:24:49;36.85;;;22.83;;
9888;SDS011;4983;42.112;24.738;2024-02-26T01:27:15;35.00;;;22.10;;
9888;SDS011;4983;42.112;24.738;2024-02-26T01:29:41;39.88;;;21.35;;
9888;SDS011;4983;42.112;24.738;2024-02-26T01:32:06;31.27;;;20.20;;
9888;SDS011;4983;42.112;24.738;2024-02-26T01:34:32;36.92;;;19.75;;
9888;SDS011;4983;42.112;24.738;2024-02-26T01:36:57;33.70;;;19.85;;
9888;SDS011;4983;42.112;24.738;2024-02-26T01:39:23;31.48;;;18.63;;
9888;SDS011;4983;42.112;24.738;2024-02-26T01:41:49;29.02;;;19.17;;
9888;SDS011;4983;42.112;24.738;2024-02-26T01:44:14;31.35;;;18.52;;
9888;SDS011;4983;42.112;24.738;2024-02-26T01:46:40;33.85;;;20.27;;
9888;SDS011;4983;42.112;24.738;2024-02-26T01:49:06;31.45;;;18.77;;
9888;SDS011;4983;42.112;24.738;2024-02-26T01:51:33;31.65;;;18.58;;
9888;SDS011;4983;42.112;24.738;2024-02-26T01:54:00;37.35;;;18.73;;
9888;SDS011;4983;42.112;24.738;2024-02-26T01:56:27;29.25;;;20.35;;
9888;SDS011;4983;42.112;24.738;2024-02-26T01:58:57;32.55;;;18.92;;
9888;SDS011;4983;42.112;24.738;2024-02-26T02:01:24;37.50;;;20.10;;
9888;SDS011;4983;42.112;24.738;2024-02-26T02:03:52;29.50;;;17.48;;
9888;SDS011;4983;42.112;24.738;2024-02-26T02:06:19;33.08;;;19.83;;
9888;SDS011;4983;42.112;24.738;2024-02-26T02:08:45;32.85;;;18.77;;
9888;SDS011;4983;42.112;24.738;2024-02-26T02:11:11;32.08;;;16.45;;
9888;SDS011;4983;42.112;24.738;2024-02-26T02:13:37;31.55;;;19.08;;
9888;SDS011;4983;42.112;24.738;2024-02-26T02:16:03;28.52;;;18.25;;
9888;SDS011;4983;42.112;24.738;2024-02-26T02:18:29;27.48;;;17.38;;
9888;SDS011;4983;42.112;24.738;2024-02-26T02:20:55;30.80;;;17.85;;
9888;SDS011;4983;42.112;24.738;2024-02-26T02:23:21;26.33;;;18.17;;
9888;SDS011;4983;42.112;24.738;2024-02-26T02:25:47;27.08;;;17.88;;
9888;SDS011;4983;42.112;24.738;2024-02-26T02:28:13;29.50;;;18.15;;
9888;SDS011;4983;42.112;24.738;2024-02-26T02:30:38;28.55;;;16.98;;
9888;SDS011;4983;42.112;24.738;2024-02-26T02:33:05;34.47;;;20.98;;
9888;SDS011;4983;42.112;24.738;2024-02-26T02:35:31;33.63;;;19.75;;
9888;SDS011;4983;42.112;24.738;2024-02-26T02:37:56;33.10;;;18.70;;
9888;SDS011;4983;42.112;24.738;2024-02-26T02:40:23;30.27;;;15.93;;
9888;SDS011;4983;42.112;24.738;2024-02-26T02:42:48;30.73;;;19.13;;
9888;SDS011;4983;42.112;24.738;2024-02-26T02:45:14;32.92;;;18.42;;
9888;SDS011;4983;42.112;24.738;2024-02-26T02:47:39;27.80;;;17.52;;
9888;SDS011;4983;42.112;24.738;2024-02-26T02:50:05;28.27;;;18.45;;
9888;SDS011;4983;42.112;24.738;2024-02-26T02:52:30;28.65;;;18.75;;
9888;SDS011;4983;42.112;24.738;2024-02-26T02:54:56;27.17;;;17.52;;
9888;SDS011;4983;42.112;24.738;2024-02-26T02:57:21;28.83;;;19.20;;
9888;SDS011;4983;42.112;24.738;2024-02-26T02:59:47;26.08;;;15.60;;
9888;SDS011;4983;42.112;24.738;2024-02-26T03:02:12;28.17;;;17.73;;
9888;SDS011;4983;42.112;24.738;2024-02-26T03:04:38;28.15;;;18.13;;
9888;SDS011;4983;42.112;24.738;2024-02-26T03:07:03;26.13;;;16.55;;
9888;SDS011;4983;42.112;24.738;2024-02-26T03:09:29;27.80;;;18.08;;
9888;SDS011;4983;42.112;24.738;2024-02-26T03:11:54;27.10;;;17.40;;
9888;SDS011;4983;42.112;24.738;2024-02-26T03:14:20;25.30;;;16.92;;
9888;SDS011;4983;42.112;24.738;2024-02-26T03:16:45;29.58;;;19.48;;
9888;SDS011;4983;42.112;24.738;2024-02-26T03:19:13;28.60;;;18.20;;
9888;SDS011;4983;42.112;24.738;2024-02-26T03:21:40;27.35;;;17.75;;
9888;SDS011;4983;42.112;24.738;2024-02-26T03:24:06;26.92;;;18.35;;
9888;SDS011;4983;42.112;24.738;2024-02-26T03:26:34;27.60;;;15.52;;
9888;SDS011;4983;42.112;24.738;2024-02-26T03:28:59;29.35;;;18.25;;
9888;SDS011;4983;42.112;24.738;2024-02-26T03:31:25;28.25;;;18.05;;
9888;SDS011;4983;42.112;24.738;2024-02-26T03:33:51;28.08;;;18.20;;
9888;SDS011;4983;42.112;24.738;2024-02-26T03:36:16;41.80;;;18.13;;
9888;SDS011;4983;42.112;24.738;2024-02-26T03:38:42;28.15;;;17.05;;
9888;SDS011;4983;42.112;24.738;2024-02-26T03:41:07;99.78;;;25.95;;
9888;SDS011;4983;42.112;24.738;2024-02-26T03:43:33;48.22;;;21.08;;
9888;SDS011;4983;42.112;24.738;2024-02-26T03:45:59;52.08;;;21.63;;
9888;SDS011;4983;42.112;24.738;2024-02-26T03:48:25;49.90;;;21.33;;
9888;SDS011;4983;42.112;24.738;2024-02-26T03:50:50;37.83;;;19.50;;
9888;SDS011;4983;42.112;24.738;2024-02-26T03:53:16;34.80;;;18.75;;
9888;SDS011;4983;42.112;24.738;2024-02-26T03:55:41;31.65;;;18.10;;
9888;SDS011;4983;42.112;24.738;2024-02-26T03:58:07;31.95;;;20.67;;
9888;SDS011;4983;42.112;24.738;2024-02-26T04:00:33;30.55;;;19.15;;
9888;SDS011;4983;42.112;24.738;2024-02-26T04:02:59;35.05;;;18.80;;
9888;SDS011;4983;42.112;24.738;2024-02-26T04:05:25;37.78;;;22.52;;
9888;SDS011;4983;42.112;24.738;2024-02-26T04:07:50;38.33;;;22.02;;
9888;SDS011;4983;42.112;24.738;2024-02-26T04:10:16;41.05;;;22.08;;
9888;SDS011;4983;42.112;24.738;2024-02-26T04:12:42;35.92;;;20.85;;
9888;SDS011;4983;42.112;24.738;2024-02-26T04:15:08;31.75;;;19.60;;
9888;SDS011;4983;42.112;24.738;2024-02-26T04:17:34;33.38;;;19.80;;
9888;SDS011;4983;42.112;24.738;2024-02-26T04:20:01;33.03;;;20.23;;
9888;SDS011;4983;42.112;24.738;2024-02-26T04:22:26;34.55;;;18.05;;
9888;SDS011;4983;42.112;24.738;2024-02-26T04:24:52;34.75;;;19.25;;
9888;SDS011;4983;42.112;24.738;2024-02-26T04:27:17;41.47;;;20.63;;
9888;SDS011;4983;42.112;24.738;2024-02-26T04:29:43;41.08;;;21.33;;
9888;SDS011;4983;42.112;24.738;2024-02-26T04:32:08;40.72;;;23.23;;
9888;SDS011;4983;42.112;24.738;2024-02-26T04:34:34;33.85;;;20.50;;
9888;SDS011;4983;42.112;24.738;2024-02-26T04:36:59;38.75;;;21.33;;
9888;SDS011;4983;42.112;24.738;2024-02-26T04:39:25;37.80;;;21.58;;
9888;SDS011;4983;42.112;24.738;2024-02-26T04:41:51;33.60;;;19.40;;
9888;SDS011;4983;42.112;24.738;2024-02-26T04:44:16;32.60;;;20.15;;
9888;SDS011;4983;42.112;24.738;2024-02-26T04:46:42;34.30;;;20.90;;
9888;SDS011;4983;42.112;24.738;2024-02-26T04:49:07;53.80;;;27.83;;
9888;SDS011;4983;42.112;24.738;2024-02-26T04:51:33;37.13;;;27.67;;
9888;SDS011;4983;42.112;24.738;2024-02-26T04:53:58;42.30;;;26.58;;
9888;SDS011;4983;42.112;24.738;2024-02-26T04:56:24;59.05;;;33.75;;
9888;SDS011;4983;42.112;24.738;2024-02-26T04:58:50;75.88;;;37.55;;
9888;SDS011;4983;42.112;24.738;2024-02-26T05:01:16;63.10;;;32.35;;
9888;SDS011;4983;42.112;24.738;2024-02-26T05:03:42;49.65;;;26.30;;
9888;SDS011;4983;42.112;24.738;2024-02-26T05:06:08;45.78;;;28.73;;
9888;SDS011;4983;42.112;24.738;2024-02-26T05:08:34;45.47;;;26.33;;
9888;SDS011;4983;42.112;24.738;2024-02-26T05:11:01;41.00;;;26.70;;
9888;SDS011;4983;42.112;24.738;2024-02-26T05:13:27;37.40;;;25.13;;
9888;SDS011;4983;42.112;24.738;2024-02-26T05:15:53;39.03;;;21.55;;
9888;SDS011;4983;42.112;24.738;2024-02-26T05:18:19;35.78;;;23.35;;
9888;SDS011;4983;42.112;24.738;2024-02-26T05:20:44;34.42;;;20.95;;
9888;SDS011;4983;42.112;24.738;2024-02-26T05:23:10;34.97;;;21.20;;
9888;SDS011;4983;42.112;24.738;2024-02-26T05:25:35;54.95;;;25.33;;
9888;SDS011;4983;42.112;24.738;2024-02-26T05:28:01;43.55;;;22.63;;
9888;SDS011;4983;42.112;24.738;2024-02-26T05:30:26;40.45;;;23.17;;
9888;SDS011;4983;42.112;24.738;2024-02-26T05:32:53;44.47;;;23.50;;
9888;SDS011;4983;42.112;24.738;2024-02-26T05:35:19;49.03;;;23.92;;
9888;SDS011;4983;42.112;24.738;2024-02-26T05:37:44;59.40;;;23.85;;
9888;SDS011;4983;42.112;24.738;2024-02-26T05:40:10;43.25;;;24.73;;
9888;SDS011;4983;42.112;24.738;2024-02-26T05:42:36;38.13;;;22.48;;
9888;SDS011;4983;42.112;24.738;2024-02-26T05:45:01;34.47;;;22.23;;
9888;SDS011;4983;42.112;24.738;2024-02-26T05:47:34;62.38;;;23.65;;
9888;SDS011;4983;42.112;24.738;2024-02-26T05:50:00;92.30;;;28.30;;
9888;SDS011;4983;42.112;24.738;2024-02-26T05:52:27;92.93;;;30.42;;
9888;SDS011;4983;42.112;24.738;2024-02-26T05:54:54;89.10;;;29.45;;
9888;SDS011;4983;42.112;24.738;2024-02-26T05:57:19;57.85;;;27.30;;
9888;SDS011;4983;42.112;24.738;2024-02-26T05:59:45;47.65;;;22.77;;
9888;SDS011;4983;42.112;24.738;2024-02-26T06:02:10;42.92;;;22.98;;
9888;SDS011;4983;42.112;24.738;2024-02-26T06:04:36;36.42;;;23.05;;
9888;SDS011;4983;42.112;24.738;2024-02-26T06:07:01;43.45;;;21.38;;
9888;SDS011;4983;42.112;24.738;2024-02-26T06:09:27;36.15;;;21.55;;
9888;SDS011;4983;42.112;24.738;2024-02-26T06:11:52;37.53;;;22.70;;
9888;SDS011;4983;42.112;24.738;2024-02-26T06:14:18;38.25;;;22.98;;
9888;SDS011;4983;42.112;24.738;2024-02-26T06:16:45;47.55;;;23.65;;
9888;SDS011;4983;42.112;24.738;2024-02-26T06:19:10;40.83;;;21.77;;
9888;SDS011;4983;42.112;24.738;2024-02-26T06:21:36;43.00;;;21.60;;
9888;SDS011;4983;42.112;24.738;2024-02-26T06:24:01;35.40;;;20.65;;
9888;SDS011;4983;42.112;24.738;2024-02-26T06:26:26;34.30;;;21.20;;
9888;SDS011;4983;42.112;24.738;2024-02-26T06:28:54;31.90;;;17.77;;
9888;SDS011;4983;42.112;24.738;2024-02-26T06:31:21;32.00;;;19.65;;
9888;SDS011;4983;42.112;24.738;2024-02-26T06:33:48;50.53;;;20.63;;
9888;SDS011;4983;42.112;24.738;2024-02-26T06:36:15;63.47;;;24.17;;
9888;SDS011;4983;42.112;24.738;2024-02-26T06:38:41;48.65;;;21.42;;
9888;SDS011;4983;42.112;24.738;2024-02-26T06:41:06;32.00;;;19.05;;
9888;SDS011;4983;42.112;24.738;2024-02-26T06:43:32;34.75;;;18.90;;
9888;SDS011;4983;42.112;24.738;2024-02-26T06:45:57;72.50;;;21.90;;
9888;SDS011;4983;42.112;24.738;2024-02-26T06:48:23;57.25;;;23.52;;
9888;SDS011;4983;42.112;24.738;2024-02-26T06:50:49;50.55;;;19.02;;
9888;SDS011;4983;42.112;24.738;2024-02-26T06:53:15;37.13;;;20.25;;
9888;SDS011;4983;42.112;24.738;2024-02-26T06:55:41;48.78;;;19.92;;
9888;SDS011;4983;42.112;24.738;2024-02-26T06:58:07;47.20;;;22.63;;
9888;SDS011;4983;42.112;24.738;2024-02-26T07:00:33;39.97;;;22.52;;
9888;SDS011;4983;42.112;24.738;2024-02-26T07:02:59;39.05;;;23.88;;
9888;SDS011;4983;42.112;24.738;2024-02-26T07:05:24;60.75;;;25.08;;
9888;SDS011;4983;42.112;24.738;2024-02-26T07:07:50;39.53;;;24.73;;
9888;SDS011;4983;42.112;24.738;2024-02-26T07:10:15;41.75;;;22.67;;
9888;SDS011;4983;42.112;24.738;2024-02-26T07:12:41;38.85;;;24.23;;
9888;SDS011;4983;42.112;24.738;2024-02-26T07:15:06;40.88;;;24.15;;
9888;SDS011;4983;42.112;24.738;2024-02-26T07:17:33;37.63;;;22.70;;
9888;SDS011;4983;42.112;24.738;2024-02-26T07:20:02;45.03;;;22.52;;
9888;SDS011;4983;42.112;24.738;2024-02-26T07:22:30;46.35;;;22.45;;
9888;SDS011;4983;42.112;24.738;2024-02-26T07:24:56;41.70;;;23.67;;
9888;SDS011;4983;42.112;24.738;2024-02-26T07:27:21;35.80;;;22.60;;
9888;SDS011;4983;42.112;24.738;2024-02-26T07:29:47;33.53;;;21.83;;
9888;SDS011;4983;42.112;24.738;2024-02-26T07:32:12;46.38;;;22.92;;
9888;SDS011;4983;42.112;24.738;2024-02-26T07:34:38;37.53;;;22.17;;
9888;SDS011;4983;42.112;24.738;2024-02-26T07:37:06;35.85;;;22.95;;
9888;SDS011;4983;42.112;24.738;2024-02-26T07:39:32;28.33;;;20.02;;
9888;SDS011;4983;42.112;24.738;2024-02-26T07:41:58;35.03;;;20.60;;
9888;SDS011;4983;42.112;24.738;2024-02-26T07:44:23;33.25;;;20.65;;
9888;SDS011;4983;42.112;24.738;2024-02-26T07:46:49;37.13;;;21.98;;
9888;SDS011;4983;42.112;24.738;2024-02-26T07:49:14;36.35;;;22.38;;
9888;SDS011;4983;42.112;24.738;2024-02-26T07:51:40;29.50;;;19.27;;
9888;SDS011;4983;42.112;24.738;2024-02-26T07:54:05;39.78;;;19.83;;
9888;SDS011;4983;42.112;24.738;2024-02-26T07:56:31;30.05;;;19.00;;
9888;SDS011;4983;42.112;24.738;2024-02-26T07:58:56;30.50;;;19.55;;
9888;SDS011;4983;42.112;24.738;2024-02-26T08:01:22;30.25;;;19.40;;
9888;SDS011;4983;42.112;24.738;2024-02-26T08:03:48;35.60;;;18.85;;
9888;SDS011;4983;42.112;24.738;2024-02-26T08:06:13;34.72;;;19.35;;
9888;SDS011;4983;42.112;24.738;2024-02-26T08:08:39;31.45;;;19.63;;
9888;SDS011;4983;42.112;24.738;2024-02-26T08:11:04;34.45;;;16.77;;
9888;SDS011;4983;42.112;24.738;2024-02-26T08:13:30;31.23;;;17.02;;
9888;SDS011;4983;42.112;24.738;2024-02-26T08:15:55;39.78;;;16.48;;
9888;SDS011;4983;42.112;24.738;2024-02-26T08:18:20;29.63;;;14.77;;
9888;SDS011;4983;42.112;24.738;2024-02-26T08:20:46;34.38;;;17.92;;
9888;SDS011;4983;42.112;24.738;2024-02-26T08:23:13;35.03;;;16.13;;
9888;SDS011;4983;42.112;24.738;2024-02-26T08:25:39;35.65;;;17.55;;
9888;SDS011;4983;42.112;24.738;2024-02-26T08:28:05;33.53;;;18.75;;
9888;SDS011;4983;42.112;24.738;2024-02-26T08:30:30;33.25;;;17.23;;
9888;SDS011;4983;42.112;24.738;2024-02-26T08:32:56;32.10;;;18.42;;
9888;SDS011;4983;42.112;24.738;2024-02-26T08:35:21;34.00;;;17.75;;
9888;SDS011;4983;42.112;24.738;2024-02-26T08:37:47;28.35;;;16.25;;
9888;SDS011;4983;42.112;24.738;2024-02-26T08:40:13;42.03;;;18.13;;
9888;SDS011;4983;42.112;24.738;2024-02-26T08:42:39;34.40;;;17.88;;
9888;SDS011;4983;42.112;24.738;2024-02-26T08:45:04;37.35;;;17.13;;
9888;SDS011;4983;42.112;24.738;2024-02-26T08:47:31;42.28;;;19.85;;
9888;SDS011;4983;42.112;24.738;2024-02-26T08:49:57;43.25;;;18.08;;
9888;SDS011;4983;42.112;24.738;2024-02-26T08:52:23;35.75;;;19.30;;
9888;SDS011;4983;42.112;24.738;2024-02-26T08:54:48;39.83;;;20.02;;
9888;SDS011;4983;42.112;24.738;2024-02-26T08:57:14;27.63;;;15.57;;
9888;SDS011;4983;42.112;24.738;2024-02-26T08:59:40;27.83;;;15.73;;
9888;SDS011;4983;42.112;24.738;2024-02-26T09:02:05;30.60;;;19.20;;
9888;SDS011;4983;42.112;24.738;2024-02-26T09:04:33;37.45;;;18.30;;
9888;SDS011;4983;42.112;24.738;2024-02-26T09:06:59;32.17;;;20.25;;
9888;SDS011;4983;42.112;24.738;2024-02-26T09:09:24;34.17;;;19.90;;
9888;SDS011;4983;42.112;24.738;2024-02-26T09:11:51;41.25;;;24.40;;
9888;SDS011;4983;42.112;24.738;2024-02-26T09:14:17;37.70;;;21.13;;
9888;SDS011;4983;42.112;24.738;2024-02-26T09:16:43;42.17;;;22.08;;
9888;SDS011;4983;42.112;24.738;2024-02-26T09:19:09;35.92;;;19.00;;
9888;SDS011;4983;42.112;24.738;2024-02-26T09:21:34;32.78;;;20.35;;
9888;SDS011;4983;42.112;24.738;2024-02-26T09:24:00;31.02;;;18.27;;
9888;SDS011;4983;42.112;24.738;2024-02-26T09:26:25;32.55;;;18.52;;
9888;SDS011;4983;42.112;24.738;2024-02-26T09:28:51;47.30;;;18.67;;
9888;SDS011;4983;42.112;24.738;2024-02-26T09:31:17;26.92;;;15.95;;
9888;SDS011;4983;42.112;24.738;2024-02-26T09:33:43;36.65;;;15.75;;
9888;SDS011;4983;42.112;24.738;2024-02-26T09:36:09;27.10;;;15.93;;
9888;SDS011;4983;42.112;24.738;2024-02-26T09:38:36;23.38;;;15.18;;
9888;SDS011;4983;42.112;24.738;2024-02-26T09:41:05;22.60;;;13.57;;
9888;SDS011;4983;42.112;24.738;2024-02-26T09:43:34;27.90;;;16.33;;
9888;SDS011;4983;42.112;24.738;2024-02-26T09:46:04;23.85;;;12.73;;
9888;SDS011;4983;42.112;24.738;2024-02-26T09:48:31;28.35;;;16.50;;
9888;SDS011;4983;42.112;24.738;2024-02-26T09:50:59;22.48;;;12.88;;
9888;SDS011;4983;42.112;24.738;2024-02-26T09:53:27;18.08;;;11.70;;
9888;SDS011;4983;42.112;24.738;2024-02-26T09:55:54;17.38;;;12.30;;
9888;SDS011;4983;42.112;24.738;2024-02-26T09:58:19;18.83;;;13.25;;
9888;SDS011;4983;42.112;24.738;2024-02-26T10:00:51;17.05;;;11.30;;
9888;SDS011;4983;42.112;24.738;2024-02-26T10:03:21;22.92;;;11.98;;
9888;SDS011;4983;42.112;24.738;2024-02-26T10:05:51;20.10;;;13.45;;
9888;SDS011;4983;42.112;24.738;2024-02-26T10:08:20;19.02;;;10.10;;
9888;SDS011;4983;42.112;24.738;2024-02-26T10:10:47;18.48;;;11.48;;
9888;SDS011;4983;42.112;24.738;2024-02-26T10:13:14;17.77;;;11.00;;
9888;SDS011;4983;42.112;24.738;2024-02-26T10:15:39;19.45;;;11.23;;
9888;SDS011;4983;42.112;24.738;2024-02-26T10:18:05;27.23;;;13.57;;
9888;SDS011;4983;42.112;24.738;2024-02-26T10:20:31;22.25;;;10.52;;
9888;SDS011;4983;42.112;24.738;2024-02-26T10:22:57;18.80;;;11.38;;
9888;SDS011;4983;42.112;24.738;2024-02-26T10:25:23;19.88;;;11.85;;
9888;SDS011;4983;42.112;24.738;2024-02-26T10:27:48;21.80;;;12.32;;
9888;SDS011;4983;42.112;24.738;2024-02-26T10:32:47;18.63;;;12.25;;
9888;SDS011;4983;42.112;24.738;2024-02-26T10:35:14;20.13;;;12.27;;
9888;SDS011;4983;42.112;24.738;2024-02-26T10:37:40;24.88;;;16.83;;
9888;SDS011;4983;42.112;24.738;2024-02-26T10:40:09;21.77;;;13.75;;
9888;SDS011;4983;42.112;24.738;2024-02-26T10:42:38;18.65;;;12.57;;
9888;SDS011;4983;42.112;24.738;2024-02-26T10:45:05;24.65;;;12.40;;
9888;SDS011;4983;42.112;24.738;2024-02-26T10:47:32;20.05;;;12.32;;
9888;SDS011;4983;42.112;24.738;2024-02-26T10:49:59;21.90;;;12.13;;
9888;SDS011;4983;42.112;24.738;2024-02-26T10:52:25;22.13;;;14.90;;
9888;SDS011;4983;42.112;24.738;2024-02-26T10:54:53;20.10;;;13.55;;
9888;SDS011;4983;42.112;24.738;2024-02-26T10:57:21;37.80;;;11.80;;
9888;SDS011;4983;42.112;24.738;2024-02-26T10:59:48;24.48;;;10.68;;
9888;SDS011;4983;42.112;24.738;2024-02-26T11:02:15;17.80;;;12.07;;
9888;SDS011;4983;42.112;24.738;2024-02-26T11:04:41;29.95;;;12.00;;
9888;SDS011;4983;42.112;24.738;2024-02-26T11:07:08;25.40;;;12.98;;
9888;SDS011;4983;42.112;24.738;2024-02-26T11:09:35;29.67;;;13.18;;
9888;SDS011;4983;42.112;24.738;2024-02-26T11:12:02;20.45;;;11.25;;
9888;SDS011;4983;42.112;24.738;2024-02-26T11:14:27;29.30;;;13.23;;
9888;SDS011;4983;42.112;24.738;2024-02-26T11:16:56;20.08;;;11.57;;
9888;SDS011;4983;42.112;24.738;2024-02-26T11:19:23;26.35;;;12.95;;
9888;SDS011;4983;42.112;24.738;2024-02-26T11:21:49;30.05;;;13.38;;
9888;SDS011;4983;42.112;24.738;2024-02-26T11:24:15;22.58;;;12.95;;
9888;SDS011;4983;42.112;24.738;2024-02-26T11:26:54;28.20;;;16.08;;
9888;SDS011;4983;42.112;24.738;2024-02-26T11:29:27;28.00;;;13.18;;
9888;SDS011;4983;42.112;24.738;2024-02-26T11:31:58;22.55;;;11.75;;
9888;SDS011;4983;42.112;24.738;2024-02-26T11:34:25;34.25;;;10.63;;
9888;SDS011;4983;42.112;24.738;2024-02-26T11:36:51;17.95;;;10.48;;
9888;SDS011;4983;42.112;24.738;2024-02-26T11:39:17;30.92;;;11.82;;
9888;SDS011;4983;42.112;24.738;2024-02-26T11:41:43;20.73;;;9.80;;
9888;SDS011;4983;42.112;24.738;2024-02-26T11:44:09;15.32;;;8.68;;
9888;SDS011;4983;42.112;24.738;2024-02-26T11:46:41;60.53;;;12.70;;
9888;SDS011;4983;42.112;24.738;2024-02-26T11:49:30;20.80;;;9.60;;
9888;SDS011;4983;42.112;24.738;2024-02-26T11:51:57;18.70;;;10.73;;
9888;SDS011;4983;42.112;24.738;2024-02-26T11:57:25;22.08;;;12.77;;
9888;SDS011;4983;42.112;24.738;2024-02-26T11:59:51;25.52;;;12.70;;
9888;SDS011;4983;42.112;24.738;2024-02-26T12:05:14;19.95;;;11.63;;
9888;SDS011;4983;42.112;24.738;2024-02-26T12:07:45;17.27;;;10.23;;
9888;SDS011;4983;42.112;24.738;2024-02-26T12:12:52;17.02;;;11.38;;
9888;SDS011;4983;42.112;24.738;2024-02-26T12:15:18;21.73;;;11.45;;
9888;SDS011;4983;42.112;24.738;2024-02-26T12:17:48;18.85;;;11.68;;
9888;SDS011;4983;42.112;24.738;2024-02-26T12:20:14;27.63;;;12.35;;
9888;SDS011;4983;42.112;24.738;2024-02-26T12:22:43;27.23;;;12.13;;
9888;SDS011;4983;42.112;24.738;2024-02-26T12:25:10;25.30;;;11.20;;
9888;SDS011;4983;42.112;24.738;2024-02-26T12:27:35;27.50;;;12.52;;
9888;SDS011;4983;42.112;24.738;2024-02-26T12:30:02;18.30;;;11.32;;
9888;SDS011;4983;42.112;24.738;2024-02-26T12:32:28;21.67;;;12.57;;
9888;SDS011;4983;42.112;24.738;2024-02-26T12:34:54;18.95;;;11.30;;
9888;SDS011;4983;42.112;24.738;2024-02-26T12:37:20;23.13;;;11.65;;
9888;SDS011;4983;42.112;24.738;2024-02-26T12:39:45;17.88;;;11.68;;
9888;SDS011;4983;42.112;24.738;2024-02-26T12:42:11;19.98;;;11.35;;
9888;SDS011;4983;42.112;24.738;2024-02-26T12:44:37;21.92;;;12.25;;
9888;SDS011;4983;42.112;24.738;2024-02-26T12:47:03;17.88;;;11.48;;
9888;SDS011;4983;42.112;24.738;2024-02-26T12:49:29;19.20;;;13.07;;
9888;SDS011;4983;42.112;24.738;2024-02-26T12:51:55;22.65;;;11.32;;
9888;SDS011;4983;42.112;24.738;2024-02-26T12:54:27;16.77;;;11.27;;
9888;SDS011;4983;42.112;24.738;2024-02-26T12:56:54;20.30;;;11.13;;
9888;SDS011;4983;42.112;24.738;2024-02-26T12:59:20;56.10;;;16.98;;
9888;SDS011;4983;42.112;24.738;2024-02-26T13:01:46;23.95;;;11.70;;
9888;SDS011;4983;42.112;24.738;2024-02-26T13:04:11;16.30;;;9.73;;
9888;SDS011;4983;42.112;24.738;2024-02-26T13:06:37;14.63;;;10.57;;
9888;SDS011;4983;42.112;24.738;2024-02-26T13:09:03;14.68;;;8.88;;
9888;SDS011;4983;42.112;24.738;2024-02-26T13:11:29;15.75;;;9.00;;
9888;SDS011;4983;42.112;24.738;2024-02-26T13:13:56;17.08;;;10.45;;
9888;SDS011;4983;42.112;24.738;2024-02-26T13:16:23;21.27;;;10.20;;
9888;SDS011;4983;42.112;24.738;2024-02-26T13:18:50;24.50;;;10.73;;
9888;SDS011;4983;42.112;24.738;2024-02-26T13:21:16;32.58;;;11.60;;
9888;SDS011;4983;42.112;24.738;2024-02-26T13:23:43;16.55;;;9.63;;
9888;SDS011;4983;42.112;24.738;2024-02-26T13:26:14;17.02;;;10.70;;
9888;SDS011;4983;42.112;24.738;2024-02-26T13:28:40;24.52;;;11.15;;
9888;SDS011;4983;42.112;24.738;2024-02-26T13:31:05;19.27;;;9.52;;
9888;SDS011;4983;42.112;24.738;2024-02-26T13:33:32;19.45;;;9.70;;
9888;SDS011;4983;42.112;24.738;2024-02-26T13:35:59;23.10;;;9.82;;
9888;SDS011;4983;42.112;24.738;2024-02-26T13:38:25;14.20;;;10.00;;
9888;SDS011;4983;42.112;24.738;2024-02-26T13:40:52;16.02;;;10.30;;
9888;SDS011;4983;42.112;24.738;2024-02-26T13:43:18;21.00;;;9.82;;
9888;SDS011;4983;42.112;24.738;2024-02-26T13:45:44;15.80;;;10.18;;
9888;SDS011;4983;42.112;24.738;2024-02-26T13:48:10;21.35;;;9.27;;
9888;SDS011;4983;42.112;24.738;2024-02-26T13:50:40;45.00;;;10.75;;
9888;SDS011;4983;42.112;24.738;2024-02-26T13:53:08;22.00;;;9.13;;
9888;SDS011;4983;42.112;24.738;2024-02-26T13:55:34;22.35;;;9.70;;
9888;SDS011;4983;42.112;24.738;2024-02-26T13:57:59;29.10;;;10.57;;
9888;SDS011;4983;42.112;24.738;2024-02-26T14:00:28;14.18;;;8.98;;
9888;SDS011;4983;42.112;24.738;2024-02-26T14:02:57;21.80;;;9.90;;
9888;SDS011;4983;42.112;24.738;2024-02-26T14:05:24;14.95;;;8.40;;
9888;SDS011;4983;42.112;24.738;2024-02-26T14:07:49;34.13;;;9.43;;
9888;SDS011;4983;42.112;24.738;2024-02-26T14:10:15;15.63;;;8.68;;
9888;SDS011;4983;42.112;24.738;2024-02-26T14:12:41;15.10;;;9.82;;
9888;SDS011;4983;42.112;24.738;2024-02-26T14:15:06;17.35;;;8.45;;
9888;SDS011;4983;42.112;24.738;2024-02-26T14:17:33;15.23;;;8.50;;
9888;SDS011;4983;42.112;24.738;2024-02-26T14:19:58;17.60;;;8.25;;
9888;SDS011;4983;42.112;24.738;2024-02-26T14:22:24;20.23;;;9.95;;
9888;SDS011;4983;42.112;24.738;2024-02-26T14:24:51;14.23;;;9.18;;
9888;SDS011;4983;42.112;24.738;2024-02-26T14:27:17;10.38;;;6.75;;
9888;SDS011;4983;42.112;24.738;2024-02-26T14:29:45;13.98;;;5.63;;
9888;SDS011;4983;42.112;24.738;2024-02-26T14:32:11;10.27;;;5.43;;
9888;SDS011;4983;42.112;24.738;2024-02-26T14:34:36;18.88;;;5.60;;
9888;SDS011;4983;42.112;24.738;2024-02-26T14:37:02;15.65;;;6.03;;
9888;SDS011;4983;42.112;24.738;2024-02-26T14:39:28;9.40;;;5.35;;
9888;SDS011;4983;42.112;24.738;2024-02-26T14:41:54;36.20;;;8.75;;